createdAt,value
2019-01-13T00:05:49.481Z,6.59
2019-01-13T00:09:07.382Z,6.75
2019-01-13T00:12:35.559Z,6.77
2019-01-13T00:15:54.744Z,6.77
2019-01-13T00:19:17.124Z,6.84
2019-01-13T00:22:32.325Z,6.84
2019-01-13T00:25:55.092Z,6.79
2019-01-13T00:29:10.873Z,6.81
2019-01-13T00:32:33.257Z,6.83
2019-01-13T00:35:50.577Z,6.88
2019-01-13T00:39:13.335Z,6.87
2019-01-13T00:42:29.088Z,6.81
2019-01-13T00:45:51.844Z,6.90
2019-01-13T00:49:08.164Z,6.90
2019-01-13T00:52:30.889Z,6.86
2019-01-13T00:55:46.895Z,6.85
2019-01-13T00:59:09.572Z,6.83
2019-01-13T01:02:25.441Z,6.85
2019-01-13T01:05:48.140Z,6.88
2019-01-13T01:09:06.417Z,6.90
2019-01-13T01:12:29.003Z,6.87
2019-01-13T01:15:44.710Z,6.58
2019-01-13T01:19:07.371Z,6.80
2019-01-13T01:22:22.655Z,6.77
2019-01-13T01:25:45.010Z,6.74
2019-01-13T01:29:00.948Z,6.48
2019-01-13T01:32:24.040Z,6.79
2019-01-13T01:35:39.125Z,6.77
2019-01-13T01:38:55.848Z,6.80
2019-01-13T01:42:18.574Z,6.81
2019-01-13T01:45:34.032Z,6.58
2019-01-13T01:48:49.416Z,6.73
2019-01-13T01:52:12.371Z,6.81
2019-01-13T01:55:27.942Z,6.78
2019-01-13T01:58:50.357Z,6.65
2019-01-13T02:02:12.043Z,6.79
2019-01-13T02:05:15.150Z,6.73
2019-01-13T02:08:19.265Z,6.76
2019-01-13T02:11:22.185Z,6.76
2019-01-13T02:14:25.492Z,6.76
2019-01-13T02:17:28.387Z,6.80
2019-01-13T02:20:31.303Z,6.83
2019-01-13T02:23:34.352Z,6.75
2019-01-13T02:26:37.277Z,6.76
2019-01-13T02:29:41.086Z,6.74
2019-01-13T02:32:44.396Z,6.75
2019-01-13T02:35:48.715Z,6.74
2019-01-13T02:38:52.300Z,6.74
2019-01-13T02:41:55.216Z,6.70
2019-01-13T02:44:58.116Z,6.76
2019-01-13T02:48:01.880Z,6.75
2019-01-13T02:51:06.206Z,6.83
2019-01-13T02:54:09.512Z,6.76
2019-01-13T02:57:12.430Z,6.77
2019-01-13T03:00:22.520Z,6.78
2019-01-13T03:03:25.449Z,6.77
2019-01-13T03:06:29.851Z,6.87
2019-01-13T03:09:32.751Z,6.88
2019-01-13T03:12:36.170Z,6.83
2019-01-13T03:15:39.070Z,6.86
2019-01-13T03:18:43.556Z,6.85
2019-01-13T03:21:46.489Z,6.85
2019-01-13T03:24:50.035Z,6.84
2019-01-13T03:27:52.951Z,6.89
2019-01-13T03:30:55.984Z,6.83
2019-01-13T03:33:59.995Z,6.83
2019-01-13T03:37:02.921Z,6.80
2019-01-13T03:40:12.347Z,6.87
2019-01-13T03:43:15.693Z,6.82
2019-01-13T03:46:18.583Z,6.80
2019-01-13T03:49:21.823Z,6.84
2019-01-13T03:52:24.771Z,6.79
2019-01-13T03:55:27.689Z,6.78
2019-01-13T03:58:30.636Z,6.79
2019-01-13T04:01:34.242Z,6.80
2019-01-13T04:04:37.167Z,6.79
2019-01-13T04:07:40.065Z,6.81
2019-01-13T04:10:43.651Z,6.81
2019-01-13T04:13:46.573Z,6.87
2019-01-13T04:16:50.512Z,6.82
2019-01-13T04:19:53.440Z,6.80
2019-01-13T04:22:56.342Z,6.79
2019-01-13T04:26:00.759Z,6.81
2019-01-13T04:29:04.143Z,6.85
2019-01-13T04:32:07.073Z,6.80
2019-01-13T04:35:10.343Z,6.85
2019-01-13T04:38:13.598Z,6.82
2019-01-13T04:41:16.834Z,6.84
2019-01-13T04:44:20.083Z,6.82
2019-01-13T04:47:22.981Z,6.83
2019-01-13T04:50:25.925Z,6.84
2019-01-13T04:53:29.485Z,6.85
2019-01-13T04:56:33.105Z,6.84
2019-01-13T04:59:36.289Z,6.84
2019-01-13T05:02:39.231Z,6.96
2019-01-13T05:05:42.141Z,6.91
2019-01-13T05:08:45.798Z,6.91
2019-01-13T05:11:48.718Z,6.93
2019-01-13T05:14:51.940Z,6.93
2019-01-13T05:17:55.408Z,6.96
2019-01-13T05:20:59.587Z,6.95
2019-01-13T05:24:02.867Z,6.97
2019-01-13T05:27:06.059Z,6.95
2019-01-13T05:30:22.579Z,6.95
2019-01-13T05:33:25.531Z,7.06
2019-01-13T05:36:28.456Z,6.98
2019-01-13T05:39:31.355Z,7.01
2019-01-13T05:42:34.592Z,6.95
2019-01-13T05:45:37.845Z,6.97
2019-01-13T05:48:40.782Z,6.96
2019-01-13T05:51:43.678Z,6.98
2019-01-13T05:54:46.597Z,6.99
2019-01-13T05:57:49.826Z,7.00
2019-01-13T06:00:52.822Z,6.98
2019-01-13T06:03:56.551Z,6.98
2019-01-13T06:06:59.768Z,6.99
2019-01-13T06:10:03.886Z,7.00
2019-01-13T06:13:08.216Z,7.00
2019-01-13T06:16:11.110Z,7.07
2019-01-13T06:19:14.376Z,7.02
2019-01-13T06:22:17.292Z,7.02
2019-01-13T06:25:20.212Z,7.01
2019-01-13T06:28:23.130Z,7.04
2019-01-13T06:31:26.316Z,7.10
2019-01-13T06:34:30.132Z,7.03
2019-01-13T06:37:33.029Z,7.07
2019-01-13T06:40:36.322Z,7.12
2019-01-13T06:43:39.532Z,7.11
2019-01-13T06:46:43.226Z,7.06
2019-01-13T06:49:46.465Z,7.15
2019-01-13T06:52:49.395Z,7.15
2019-01-13T06:55:52.731Z,7.08
2019-01-13T06:58:56.438Z,7.12
2019-01-13T07:02:03.303Z,7.12
2019-01-13T07:05:05.707Z,7.15
2019-01-13T07:08:08.676Z,7.21
2019-01-13T07:11:11.588Z,7.16
2019-01-13T07:14:14.885Z,7.17
2019-01-13T07:17:17.867Z,7.28
2019-01-13T07:20:21.637Z,7.19
2019-01-13T07:23:26.044Z,7.27
2019-01-13T07:26:29.412Z,7.20
2019-01-13T07:29:32.700Z,7.24
2019-01-13T07:32:35.617Z,7.19
2019-01-13T07:35:38.553Z,7.24
2019-01-13T07:38:41.471Z,7.19
2019-01-13T07:41:45.108Z,7.25
2019-01-13T07:44:49.006Z,7.30
2019-01-13T07:47:52.294Z,7.27
2019-01-13T07:50:55.495Z,7.37
2019-01-13T07:53:59.142Z,7.32
2019-01-13T07:57:02.412Z,7.40
2019-01-13T08:00:10.946Z,7.33
2019-01-13T08:03:15.532Z,7.38
2019-01-13T08:06:18.474Z,7.34
2019-01-13T08:09:33.676Z,7.36
2019-01-13T08:12:56.355Z,7.36
2019-01-13T08:16:11.404Z,7.41
2019-01-13T08:19:33.794Z,7.42
2019-01-13T08:22:48.983Z,7.40
2019-01-13T08:26:11.750Z,7.49
2019-01-13T08:29:28.728Z,7.05
2019-01-13T08:32:51.468Z,7.49
2019-01-13T08:36:06.860Z,7.47
2019-01-13T08:39:29.241Z,7.48
2019-01-13T08:42:44.550Z,7.43
2019-01-13T08:46:06.948Z,7.62
2019-01-13T08:49:22.348Z,7.55
2019-01-13T08:52:44.734Z,7.18
2019-01-13T08:56:00.471Z,7.59
2019-01-13T08:59:23.167Z,7.65
2019-01-13T09:02:40.395Z,7.52
2019-01-13T09:06:02.782Z,7.70
2019-01-13T09:09:25.183Z,7.73
2019-01-13T09:12:48.052Z,7.55
2019-01-13T09:16:03.619Z,7.71
2019-01-13T09:19:26.276Z,7.77
2019-01-13T09:22:42.191Z,7.70
2019-01-13T09:26:04.556Z,8.23
2019-01-13T09:29:20.301Z,7.99
2019-01-13T09:32:43.064Z,7.89
2019-01-13T09:35:58.500Z,7.99
2019-01-13T09:39:20.979Z,7.99
2019-01-13T09:42:36.888Z,7.95
2019-01-13T09:45:51.964Z,7.79
2019-01-13T09:49:07.305Z,10.66
2019-01-13T09:52:29.673Z,12.92
2019-01-13T09:55:44.788Z,13.71
2019-01-13T09:59:07.168Z,9.68
2019-01-13T10:02:22.685Z,8.71
2019-01-13T10:05:38.984Z,8.48
2019-01-13T10:09:01.694Z,8.26
2019-01-13T10:12:19.181Z,8.00
2019-01-13T10:15:22.791Z,8.22
2019-01-13T10:18:45.690Z,8.16
2019-01-13T10:22:01.419Z,8.18
2019-01-13T10:25:24.141Z,8.15
2019-01-13T10:28:39.561Z,7.92
2019-01-13T10:31:56.473Z,8.24
2019-01-13T10:35:18.934Z,8.11
2019-01-13T10:38:33.979Z,8.24
2019-01-13T10:41:56.821Z,8.12
2019-01-13T10:45:13.564Z,7.90
2019-01-13T10:48:30.389Z,8.18
2019-01-13T10:51:52.894Z,8.17
2019-01-13T10:55:09.167Z,8.16
2019-01-13T10:58:24.320Z,8.14
2019-01-13T11:01:46.772Z,8.21
2019-01-13T11:05:02.613Z,8.16
2019-01-13T11:08:18.105Z,8.16
2019-01-13T11:11:40.833Z,8.12
2019-01-13T11:14:57.313Z,8.17
2019-01-13T11:18:20.021Z,8.16
2019-01-13T11:21:35.538Z,8.20
2019-01-13T11:24:50.921Z,7.79
2019-01-13T11:28:13.968Z,8.22
2019-01-13T11:31:29.593Z,8.21
2019-01-13T11:34:44.894Z,8.20
2019-01-13T11:38:20.228Z,8.28
2019-01-13T11:41:42.601Z,8.21
2019-01-13T11:44:58.550Z,8.24
2019-01-13T11:48:14.037Z,8.24
2019-01-13T11:51:29.301Z,8.30
2019-01-13T11:54:44.579Z,7.80
2019-01-13T11:58:06.952Z,8.20
2019-01-13T12:01:22.253Z,8.11
2019-01-13T12:04:44.652Z,8.19
2019-01-13T12:07:59.918Z,8.25
2019-01-13T12:11:15.320Z,8.24
2019-01-13T12:14:39.327Z,8.14
2019-01-13T12:17:42.347Z,7.86
2019-01-13T12:20:58.147Z,8.27
2019-01-13T12:24:20.828Z,8.31
2019-01-13T12:27:36.446Z,8.29
2019-01-13T12:30:58.842Z,8.23
2019-01-13T12:34:14.110Z,8.18
2019-01-13T12:37:29.804Z,8.01
2019-01-13T12:40:52.827Z,8.17
2019-01-13T12:44:08.017Z,7.92
2019-01-13T12:47:30.425Z,8.32
2019-01-13T12:50:46.023Z,8.31
2019-01-13T12:54:08.424Z,8.24
2019-01-13T12:57:24.167Z,8.19
2019-01-13T13:00:46.613Z,8.25
2019-01-13T13:04:01.883Z,8.22
2019-01-13T13:07:24.406Z,8.17
2019-01-13T13:10:40.990Z,8.34
2019-01-13T13:14:03.730Z,8.26
2019-01-13T13:17:19.955Z,8.34
2019-01-13T13:20:35.901Z,8.27
2019-01-13T13:23:58.439Z,8.33
2019-01-13T13:27:13.944Z,8.26
2019-01-13T13:30:29.206Z,8.27
2019-01-13T13:33:52.013Z,8.26
2019-01-13T13:37:07.210Z,8.23
2019-01-13T13:40:22.809Z,8.23
2019-01-13T13:43:44.442Z,8.39
2019-01-13T13:47:00.361Z,8.34
2019-01-13T13:50:17.365Z,8.28
2019-01-13T13:53:33.208Z,8.34
2019-01-13T13:56:48.588Z,7.86
2019-01-13T14:04:10.664Z,8.23
2019-01-13T14:07:26.055Z,8.04
2019-01-13T14:10:48.443Z,8.26
2019-01-13T14:14:03.937Z,8.27
2019-01-13T14:17:19.110Z,8.29
2019-01-13T14:20:41.523Z,8.32
2019-01-13T14:23:56.899Z,8.29
2019-01-13T14:27:19.300Z,8.30
2019-01-13T14:30:24.625Z,8.26
2019-01-13T14:33:52.804Z,8.38
2019-01-13T14:37:24.162Z,8.36
2019-01-13T14:40:46.929Z,8.31
2019-01-13T14:44:02.357Z,8.36
2019-01-13T14:47:24.748Z,8.33
2019-01-13T14:50:40.164Z,8.28
2019-01-13T14:53:55.204Z,8.24
2019-01-13T14:57:10.496Z,8.28
2019-01-13T15:00:33.249Z,8.37
2019-01-13T15:03:49.171Z,8.38
2019-01-13T15:07:11.571Z,8.32
2019-01-13T15:10:26.539Z,8.08
2019-01-13T15:13:42.037Z,8.36
2019-01-13T15:17:04.707Z,8.38
2019-01-13T15:20:20.849Z,8.35
2019-01-13T15:23:43.258Z,7.99
2019-01-13T15:26:59.062Z,8.43
2019-01-13T15:30:26.912Z,8.37
2019-01-13T15:33:42.712Z,8.46
2019-01-13T15:37:05.111Z,8.43
2019-01-13T15:40:20.232Z,8.24
2019-01-13T15:43:42.627Z,8.45
2019-01-13T15:46:46.381Z,8.41
2019-01-13T15:50:01.821Z,8.45
2019-01-13T15:53:24.556Z,8.43
2019-01-13T15:56:39.596Z,8.35
2019-01-13T15:59:42.498Z,8.47
2019-01-13T16:02:58.750Z,8.44
2019-01-13T16:06:21.150Z,8.10
2019-01-13T16:09:37.552Z,8.03
2019-01-13T16:12:53.491Z,8.43
2019-01-13T16:16:16.877Z,8.37
2019-01-13T16:19:32.803Z,8.33
2019-01-13T16:22:48.327Z,8.38
2019-01-13T16:26:10.724Z,8.34
2019-01-13T16:29:27.046Z,8.34
2019-01-13T16:32:49.463Z,8.38
2019-01-13T16:36:05.104Z,8.36
2019-01-13T16:39:27.500Z,8.41
2019-01-13T16:42:42.696Z,8.37
2019-01-13T16:45:58.552Z,8.37
2019-01-13T16:49:14.666Z,8.68
2019-01-13T16:56:32.857Z,8.47
2019-01-13T16:59:48.510Z,8.35
2019-01-13T17:03:11.196Z,8.34
2019-01-13T17:06:26.786Z,8.38
2019-01-13T17:09:49.264Z,8.01
2019-01-13T17:13:04.537Z,8.35
2019-01-13T17:16:19.607Z,8.36
2019-01-13T17:19:42.321Z,8.29
2019-01-13T17:22:58.305Z,8.36
2019-01-13T17:26:20.720Z,8.34
2019-01-13T17:29:36.529Z,8.33
2019-01-13T17:32:58.917Z,8.39
2019-01-13T17:36:14.334Z,8.40
2019-01-13T17:39:37.025Z,8.37
2019-01-13T17:42:53.024Z,8.39
2019-01-13T17:46:15.409Z,8.40
2019-01-13T17:49:31.273Z,8.42
2019-01-13T17:52:53.768Z,8.47
2019-01-13T17:56:09.597Z,8.29
2019-01-13T17:59:31.971Z,8.08
2019-01-13T18:02:47.336Z,7.73
2019-01-13T18:06:09.732Z,7.72
2019-01-13T18:09:25.242Z,7.30
2019-01-13T18:12:41.191Z,7.48
2019-01-13T18:16:03.568Z,7.39
2019-01-13T18:19:18.742Z,7.42
2019-01-13T18:22:41.175Z,7.04
2019-01-13T18:25:56.288Z,7.34
2019-01-13T18:29:11.542Z,6.89
2019-01-13T18:32:33.937Z,7.33
2019-01-13T18:35:49.348Z,7.38
2019-01-13T18:39:05.757Z,7.34
2019-01-13T18:42:22.630Z,7.37
2019-01-13T18:45:38.065Z,7.40
2019-01-13T18:48:53.534Z,7.43
2019-01-13T18:52:16.605Z,7.38
2019-01-13T18:55:32.238Z,7.45
2019-01-13T18:58:54.695Z,7.01
2019-01-13T19:02:08.486Z,7.38
2019-01-13T19:05:24.240Z,7.36
2019-01-13T19:08:47.303Z,7.36
2019-01-13T19:12:02.764Z,7.42
2019-01-13T19:15:18.000Z,7.46
2019-01-13T19:18:40.458Z,7.53
2019-01-13T19:21:55.529Z,7.48
2019-01-13T19:25:22.055Z,7.46
2019-01-13T19:28:37.448Z,7.47
2019-01-13T19:32:00.144Z,7.38
2019-01-13T19:35:15.734Z,7.03
2019-01-13T19:38:31.905Z,7.43
2019-01-13T19:41:47.372Z,7.48
2019-01-13T19:49:07.259Z,7.45
2019-01-13T19:52:23.110Z,7.45
2019-01-13T19:55:45.606Z,7.53
2019-01-13T19:59:01.444Z,7.58
2019-01-13T20:02:24.343Z,7.49
2019-01-13T20:05:39.768Z,7.57
2019-01-13T20:09:14.099Z,7.53
2019-01-13T20:12:36.710Z,7.59
2019-01-13T20:15:52.106Z,7.54
2019-01-13T20:19:14.613Z,7.59
2019-01-13T20:22:30.410Z,7.55
2019-01-13T20:25:52.838Z,7.45
2019-01-13T20:29:08.233Z,7.03
2019-01-13T20:32:31.075Z,7.52
2019-01-13T20:35:46.983Z,7.25
2019-01-13T20:43:06.646Z,7.25
2019-01-13T20:46:29.338Z,7.48
2019-01-13T20:49:44.713Z,7.48
2019-01-13T20:53:07.552Z,7.32
2019-01-13T20:56:23.351Z,7.47
2019-01-13T20:59:46.345Z,7.35
2019-01-13T21:03:03.350Z,7.46
2019-01-13T21:06:25.752Z,7.38
2019-01-13T21:09:41.608Z,7.60
2019-01-13T21:12:58.986Z,7.64
2019-01-13T21:16:21.377Z,7.60
2019-01-13T21:19:37.400Z,7.51
2019-01-13T21:22:52.940Z,7.22
2019-01-13T21:26:15.409Z,7.45
2019-01-13T21:29:31.395Z,7.47
2019-01-13T21:32:47.148Z,7.47
2019-01-13T21:36:03.196Z,7.41
2019-01-13T21:39:25.593Z,7.35
2019-01-13T21:42:41.145Z,7.38
2019-01-13T21:46:04.310Z,7.39
2019-01-13T21:49:21.858Z,7.43
2019-01-13T21:52:44.499Z,7.44
2019-01-13T21:55:59.634Z,7.35
2019-01-13T21:59:23.470Z,7.29
2019-01-13T22:02:59.666Z,7.05
2019-01-13T22:06:22.138Z,7.38
2019-01-13T22:09:37.356Z,7.29
2019-01-13T22:13:00.153Z,7.23
2019-01-13T22:16:15.855Z,7.17
2019-01-13T22:19:38.267Z,7.28
2019-01-13T22:22:53.742Z,7.24
2019-01-13T22:26:16.459Z,7.24
2019-01-13T22:29:32.397Z,7.07
2019-01-13T22:32:55.080Z,7.09
2019-01-13T22:36:11.173Z,7.01
2019-01-13T22:39:33.583Z,6.67
2019-01-13T22:42:49.570Z,7.01
2019-01-13T22:46:05.046Z,7.04
2019-01-13T22:49:28.760Z,7.13
2019-01-13T22:52:44.038Z,7.15
2019-01-13T22:55:59.892Z,7.11
2019-01-13T22:59:22.328Z,7.15
2019-01-13T23:02:37.939Z,7.17
2019-01-13T23:06:00.723Z,7.13
2019-01-13T23:09:14.346Z,7.06
2019-01-13T23:12:36.840Z,6.63
2019-01-13T23:15:52.243Z,6.93
2019-01-13T23:19:14.937Z,6.86
2019-01-13T23:22:30.583Z,6.98
2019-01-13T23:25:52.995Z,6.90
2019-01-13T23:29:08.937Z,6.86
2019-01-13T23:32:24.260Z,6.43
2019-01-13T23:35:39.584Z,6.82
2019-01-13T23:38:43.213Z,6.90
2019-01-13T23:41:46.544Z,6.91
2019-01-13T23:45:09.982Z,7.00
2019-01-13T23:48:26.048Z,6.77
2019-01-13T23:51:48.546Z,6.70
2019-01-13T23:55:04.500Z,7.02
2019-01-13T23:58:19.893Z,6.93
